Lontetree, Wyoming
Current Conditions -  °F | °C
As of 4:15 PM on Saturday 25 Oct 2014 (Local Time) from KFBR Reporting Station
Clear Clear  
Wind Chill: 73°   Ceiling: Unl
Heat Index: 73°   Visibility: NA
Dew Point: 22°   Wind: 8mph
Humidity: 15%   Direction: 230°SW
Pressure: 30.12"   Gusts: NA
Location:  41.04°N, 110.17°W
Report Text: KFBR 252215Z AUTO 23007KT 160V250 CLR 23/M06 A3012 RMK AO2 T02261056 PWINO
Loading
Personal Weather Stations






























Interactive Weather Map
Tropical Storm Tracking
New forecast layout! Learn more

10-Day Weather Forecast

Advertisements
Track Severe Weather on mobile